createdAt,value
2022-10-13T00:04:33.345Z,100
2022-10-13T00:09:31.487Z,100
2022-10-13T00:14:29.545Z,100
2022-10-13T00:19:27.726Z,100
2022-10-13T00:24:25.915Z,100
2022-10-13T00:29:24.009Z,100
2022-10-13T00:34:22.389Z,100
2022-10-13T00:39:20.481Z,100
2022-10-13T00:44:18.601Z,100
2022-10-13T00:49:16.842Z,100
2022-10-13T00:54:15.314Z,100
2022-10-13T00:59:13.456Z,100
2022-10-13T01:04:11.496Z,100
2022-10-13T01:09:09.747Z,100
2022-10-13T01:14:08.001Z,100
2022-10-13T01:19:05.883Z,100
2022-10-13T01:24:03.808Z,100
2022-10-13T01:29:02.030Z,100
2022-10-13T01:34:00.104Z,100
2022-10-13T01:38:58.281Z,100
2022-10-13T01:43:56.612Z,100
2022-10-13T01:48:54.633Z,100
2022-10-13T01:53:52.845Z,100
2022-10-13T01:58:50.983Z,100
2022-10-13T02:03:49.316Z,100
2022-10-13T02:08:47.629Z,100
2022-10-13T02:13:46.031Z,100
2022-10-13T02:18:44.120Z,100
2022-10-13T02:23:42.140Z,100
2022-10-13T02:28:40.285Z,100
2022-10-13T02:33:38.425Z,100
2022-10-13T02:38:36.836Z,100
2022-10-13T02:43:35.066Z,100
2022-10-13T02:48:33.293Z,100
2022-10-13T02:53:31.191Z,100
2022-10-13T02:58:29.380Z,100
2022-10-13T03:03:27.705Z,100
2022-10-13T03:08:25.991Z,100
2022-10-13T03:13:24.275Z,100
2022-10-13T03:18:22.426Z,100
2022-10-13T03:23:20.704Z,100
2022-10-13T03:28:18.534Z,100
2022-10-13T03:33:16.797Z,100
2022-10-13T03:38:14.905Z,100
2022-10-13T03:43:13.162Z,100
2022-10-13T03:48:11.290Z,100
2022-10-13T03:53:09.607Z,100
2022-10-13T03:58:08.028Z,100
2022-10-13T04:03:06.221Z,100
2022-10-13T04:08:04.334Z,100
2022-10-13T04:13:02.682Z,100
2022-10-13T04:18:00.714Z,100
2022-10-13T04:22:58.900Z,100
2022-10-13T04:27:57.222Z,100
2022-10-13T04:32:55.537Z,100
2022-10-13T04:37:53.787Z,100
2022-10-13T04:42:52.037Z,100
2022-10-13T04:47:50.029Z,100
2022-10-13T04:52:48.438Z,100
2022-10-13T04:57:46.564Z,100
2022-10-13T05:02:44.925Z,100
2022-10-13T05:07:43.191Z,100
2022-10-13T05:12:41.514Z,100
2022-10-13T05:17:39.937Z,100
2022-10-13T05:22:38.352Z,100
2022-10-13T05:27:36.501Z,100
2022-10-13T05:32:34.843Z,100
2022-10-13T05:37:32.752Z,100
2022-10-13T05:42:31.090Z,100
2022-10-13T05:47:29.114Z,100
2022-10-13T05:52:27.852Z,100
2022-10-13T05:57:26.572Z,100
2022-10-13T06:02:24.894Z,100
2022-10-13T06:07:23.382Z,100
2022-10-13T06:12:22.547Z,100
2022-10-13T06:17:20.783Z,100
2022-10-13T06:22:19.730Z,100
2022-10-13T06:27:17.702Z,100
2022-10-13T06:32:16.068Z,100
2022-10-13T06:37:14.517Z,100
2022-10-13T06:42:12.871Z,100
2022-10-13T06:47:10.894Z,100
2022-10-13T06:52:09.129Z,100
2022-10-13T06:57:07.317Z,99.9
2022-10-13T07:02:05.633Z,98.7
2022-10-13T07:07:04.137Z,98.5
2022-10-13T07:12:02.667Z,96.9
2022-10-13T07:17:01.017Z,96.6
2022-10-13T07:21:59.370Z,95.4
2022-10-13T07:26:57.832Z,94.4
2022-10-13T07:31:56.418Z,93.1
2022-10-13T07:36:55.630Z,92.1
2022-10-13T07:41:54.328Z,89.1
2022-10-13T07:46:52.912Z,88.5
2022-10-13T07:51:50.960Z,89.2
2022-10-13T07:56:49.315Z,87.6
2022-10-13T08:01:48.426Z,85.4
2022-10-13T08:06:47.946Z,81.1
2022-10-13T08:11:49.072Z,68.3
2022-10-13T08:16:51.306Z,64.7
2022-10-13T08:22:04.590Z,66.6
2022-10-13T08:26:44.623Z,68.4
2022-10-13T08:31:42.290Z,74.1
2022-10-13T08:36:39.548Z,72.5
2022-10-13T08:41:38.246Z,70.1
2022-10-13T08:49:05.045Z,75
2022-10-13T08:54:02.438Z,75.5
2022-10-13T08:59:02.191Z,68.2
2022-10-13T09:04:01.087Z,67.9
2022-10-13T09:08:59.478Z,67
2022-10-13T09:13:58.191Z,64.2
2022-10-13T09:18:57.897Z,61.4
2022-10-13T09:23:55.380Z,64.4
2022-10-13T09:28:52.506Z,67
2022-10-13T09:33:50.295Z,68.1
2022-10-13T09:38:48.872Z,64.2
2022-10-13T09:43:46.857Z,65.1
2022-10-13T09:48:45.519Z,63.7
2022-10-13T09:53:43.562Z,62.9
2022-10-13T09:58:42.461Z,63
2022-10-13T10:03:41.005Z,58.8
2022-10-13T10:08:58.371Z,54
2022-10-13T10:13:40.183Z,51.8
2022-10-13T10:18:37.858Z,53.9
2022-10-13T10:23:35.054Z,55.5
2022-10-13T10:28:32.970Z,55.3
2022-10-13T10:33:31.433Z,53.1
2022-10-13T10:38:31.168Z,48.7
2022-10-13T10:43:30.779Z,43.9
2022-10-13T10:48:31.821Z,39
2022-10-13T10:53:30.564Z,38.4
2022-10-13T10:58:29.717Z,36.8
2022-10-13T11:03:27.619Z,39
2022-10-13T11:08:24.293Z,41.2
2022-10-13T11:13:21.686Z,42.4
2022-10-13T11:18:21.904Z,44
2022-10-13T11:23:15.407Z,48.6
2022-10-13T11:28:12.253Z,50.7
2022-10-13T11:33:09.139Z,52.6
2022-10-13T11:38:08.082Z,56.4
2022-10-13T11:43:03.799Z,57.3
2022-10-13T11:48:01.066Z,56.4
2022-10-13T11:52:59.282Z,56.7
2022-10-13T11:57:57.476Z,56.1
2022-10-13T12:02:55.852Z,56.4
2022-10-13T12:07:54.106Z,56.7
2022-10-13T12:12:52.441Z,54.1
2022-10-13T12:17:51.900Z,48.4
2022-10-13T12:22:52.108Z,42.8
2022-10-13T12:27:52.425Z,40.3
2022-10-13T12:32:50.970Z,39.6
2022-10-13T12:37:46.715Z,47.2
2022-10-13T12:42:42.115Z,52.8
2022-10-13T12:47:38.816Z,54.4
2022-10-13T12:52:36.611Z,54.9
2022-10-13T12:57:34.180Z,59.8
2022-10-13T13:02:31.836Z,61.7
2022-10-13T13:07:29.880Z,59.5
2022-10-13T13:12:27.615Z,59.6
2022-10-13T13:17:53.220Z,61.6
2022-10-13T13:22:23.761Z,65.1
2022-10-13T13:27:21.716Z,66.5
2022-10-13T13:32:20.302Z,66.8
2022-10-13T13:37:17.082Z,69.4
2022-10-13T13:42:14.582Z,69.4
2022-10-13T13:47:12.661Z,68.4
2022-10-13T13:52:10.755Z,71.6
2022-10-13T13:57:08.540Z,72.2
2022-10-13T14:02:06.308Z,75.8
2022-10-13T14:07:04.225Z,77.2
2022-10-13T14:12:02.270Z,79.1
2022-10-13T14:17:00.093Z,81.3
2022-10-13T14:21:57.837Z,82.2
2022-10-13T14:26:55.602Z,83
2022-10-13T14:31:53.358Z,83.2
2022-10-13T14:36:51.188Z,80.8
2022-10-13T14:41:48.966Z,80.9
2022-10-13T14:46:46.697Z,79.6
2022-10-13T14:51:44.217Z,80.6
2022-10-13T14:56:41.808Z,79.8
2022-10-13T15:01:39.297Z,81.1
2022-10-13T15:06:37.247Z,81.1
2022-10-13T15:11:36.504Z,81.7
2022-10-13T15:16:34.203Z,82.5
2022-10-13T15:21:33.648Z,84.3
2022-10-13T15:26:31.478Z,85.4
2022-10-13T15:31:29.394Z,86.3
2022-10-13T15:36:27.402Z,86.8
2022-10-13T15:41:25.435Z,89.7
2022-10-13T15:46:23.373Z,92.4
2022-10-13T15:51:21.253Z,93.4
2022-10-13T15:56:19.445Z,94.4
2022-10-13T16:01:17.654Z,93.6
2022-10-13T16:06:15.850Z,92.1
2022-10-13T16:11:13.933Z,92.7
2022-10-13T16:16:12.102Z,93.6
2022-10-13T16:21:12.325Z,94.4
2022-10-13T16:26:08.282Z,95.2
2022-10-13T16:31:06.476Z,97.1
2022-10-13T16:36:04.282Z,98.6
2022-10-13T16:41:02.490Z,100
2022-10-13T16:46:00.880Z,99.9
2022-10-13T16:50:58.891Z,100
2022-10-13T16:55:56.978Z,99.6
2022-10-13T17:00:55.264Z,99.8
2022-10-13T17:05:53.295Z,100
2022-10-13T17:10:57.940Z,99.7
2022-10-13T17:15:49.954Z,98.8
2022-10-13T17:20:48.307Z,98.1
2022-10-13T17:25:46.646Z,98.3
2022-10-13T17:30:45.180Z,98.3
2022-10-13T17:35:43.004Z,97.8
2022-10-13T17:40:41.214Z,98.1
2022-10-13T17:45:39.615Z,98.4
2022-10-13T17:50:38.098Z,100
2022-10-13T17:55:36.308Z,99.8
2022-10-13T18:00:48.823Z,99.5
2022-10-13T18:05:32.581Z,100
2022-10-13T18:10:33.935Z,100
2022-10-13T18:15:28.808Z,100
2022-10-13T18:20:26.746Z,100
2022-10-13T18:25:25.043Z,100
2022-10-13T18:30:23.096Z,100
2022-10-13T18:35:21.170Z,100
2022-10-13T18:40:19.410Z,100
2022-10-13T18:45:17.696Z,100
2022-10-13T18:50:16.032Z,100
2022-10-13T18:55:14.151Z,100
2022-10-13T19:00:12.305Z,100
2022-10-13T19:05:10.413Z,100
2022-10-13T19:10:08.241Z,100
2022-10-13T19:15:06.148Z,100
2022-10-13T19:20:04.026Z,100
2022-10-13T19:25:02.041Z,100
2022-10-13T19:30:00.112Z,100
2022-10-13T19:34:58.248Z,100
2022-10-13T19:39:56.405Z,100
2022-10-13T19:44:54.461Z,100
2022-10-13T19:49:52.788Z,100
2022-10-13T19:54:50.946Z,100
2022-10-13T19:59:49.028Z,100
2022-10-13T20:04:47.058Z,100
2022-10-13T20:09:45.189Z,100
2022-10-13T20:14:43.224Z,100
2022-10-13T20:19:41.153Z,100
2022-10-13T20:24:39.205Z,100
2022-10-13T20:29:37.437Z,100
2022-10-13T20:34:35.481Z,100
2022-10-13T20:39:33.644Z,100
2022-10-13T20:44:31.851Z,100
2022-10-13T20:49:30.146Z,100
2022-10-13T20:54:28.241Z,100
2022-10-13T20:59:26.289Z,100
2022-10-13T21:04:24.367Z,100
2022-10-13T21:09:22.581Z,100
2022-10-13T21:14:20.746Z,100
2022-10-13T21:19:18.744Z,100
2022-10-13T21:24:17.483Z,100
2022-10-13T21:29:15.533Z,100
2022-10-13T21:34:13.739Z,100
2022-10-13T21:39:11.727Z,100
2022-10-13T21:44:09.905Z,100
2022-10-13T21:49:08.035Z,100
2022-10-13T21:54:06.511Z,100
2022-10-13T21:59:04.895Z,100
2022-10-13T22:04:03.072Z,100
2022-10-13T22:09:01.197Z,100
2022-10-13T22:13:59.203Z,100
2022-10-13T22:18:57.441Z,100
2022-10-13T22:23:55.637Z,100
2022-10-13T22:28:54.949Z,100
2022-10-13T22:33:52.803Z,100
2022-10-13T22:38:50.943Z,100
2022-10-13T22:43:48.785Z,100
2022-10-13T22:48:46.777Z,100
2022-10-13T22:53:44.974Z,100
2022-10-13T22:58:43.096Z,100
2022-10-13T23:03:41.268Z,100
2022-10-13T23:08:39.520Z,100
2022-10-13T23:13:39.790Z,100
2022-10-13T23:18:37.378Z,100
2022-10-13T23:23:35.437Z,100
2022-10-13T23:28:33.868Z,100
2022-10-13T23:33:31.923Z,100
2022-10-13T23:38:30.000Z,100
2022-10-13T23:43:28.213Z,100
2022-10-13T23:48:26.534Z,100
2022-10-13T23:53:24.669Z,100
2022-10-13T23:58:22.772Z,100
